createdAt,value
2019-02-17T00:00:29.698Z,47.10
2019-02-17T00:02:57.992Z,47.10
2019-02-17T00:05:26.558Z,47.40
2019-02-17T00:07:54.854Z,47.50
2019-02-17T00:10:23.168Z,47.50
2019-02-17T00:12:51.814Z,47.20
2019-02-17T00:15:20.142Z,47.10
2019-02-17T00:17:48.442Z,47.10
2019-02-17T00:20:17.040Z,47.70
2019-02-17T00:22:45.376Z,47.10
2019-02-17T00:25:13.671Z,46.90
2019-02-17T00:27:41.989Z,47.10
2019-02-17T00:30:11.717Z,47.10
2019-02-17T00:32:40.019Z,47.10
2019-02-17T00:35:09.957Z,47.20
2019-02-17T00:37:38.254Z,47.20
2019-02-17T00:40:07.827Z,47.20
2019-02-17T00:42:36.670Z,47.10
2019-02-17T00:45:06.296Z,47.10
2019-02-17T00:47:34.960Z,47.10
2019-02-17T00:50:03.858Z,47.10
2019-02-17T00:52:32.218Z,47.00
2019-02-17T00:55:00.796Z,47.10
2019-02-17T00:57:29.378Z,47.00
2019-02-17T00:59:57.962Z,47.00
2019-02-17T01:02:26.550Z,47.20
2019-02-17T01:04:55.135Z,47.10
2019-02-17T01:07:23.731Z,47.30
2019-02-17T01:09:52.408Z,47.20
2019-02-17T01:12:21.003Z,47.20
2019-02-17T01:14:49.312Z,47.10
2019-02-17T01:17:17.612Z,47.20
2019-02-17T01:19:45.921Z,47.20
2019-02-17T01:22:14.503Z,46.90
2019-02-17T01:24:43.704Z,47.00
2019-02-17T01:27:12.010Z,47.00
2019-02-17T01:29:40.319Z,47.00
2019-02-17T01:32:08.611Z,46.90
2019-02-17T01:34:36.918Z,47.00
2019-02-17T01:37:05.298Z,47.00
2019-02-17T01:39:33.895Z,47.00
2019-02-17T01:42:02.633Z,46.90
2019-02-17T01:44:31.379Z,47.00
2019-02-17T01:46:59.687Z,47.00
2019-02-17T01:49:28.003Z,47.00
2019-02-17T01:51:56.590Z,46.90
2019-02-17T01:54:24.894Z,46.80
2019-02-17T01:56:53.222Z,46.60
2019-02-17T01:59:30.350Z,46.40
2019-02-17T02:01:52.255Z,46.50
2019-02-17T02:04:20.835Z,46.40
2019-02-17T02:06:49.128Z,46.50
2019-02-17T02:09:17.446Z,46.40
2019-02-17T02:11:46.083Z,46.40
2019-02-17T02:14:14.447Z,46.40
2019-02-17T02:16:42.757Z,46.70
2019-02-17T02:19:11.040Z,46.60
2019-02-17T02:21:39.347Z,46.60
2019-02-17T02:24:07.658Z,46.60
2019-02-17T02:26:35.963Z,46.80
2019-02-17T02:29:04.256Z,46.70
2019-02-17T02:31:32.926Z,46.60
2019-02-17T02:34:01.666Z,46.70
2019-02-17T02:36:30.061Z,46.70
2019-02-17T02:38:58.347Z,46.90
2019-02-17T02:41:34.245Z,46.70
2019-02-17T02:43:56.985Z,46.70
2019-02-17T02:46:25.626Z,46.80
2019-02-17T02:48:54.216Z,46.70
2019-02-17T02:51:22.795Z,46.70
2019-02-17T02:53:51.378Z,46.90
2019-02-17T02:56:19.691Z,46.80
2019-02-17T02:58:48.348Z,46.70
2019-02-17T03:01:16.649Z,46.50
2019-02-17T03:03:46.075Z,47.30
2019-02-17T03:06:22.187Z,46.60
2019-02-17T03:08:50.605Z,46.70
2019-02-17T03:11:19.255Z,46.60
2019-02-17T03:13:47.832Z,46.60
2019-02-17T03:16:16.163Z,46.60
2019-02-17T03:18:44.450Z,46.60
2019-02-17T03:21:12.758Z,46.80
2019-02-17T03:23:41.052Z,46.90
2019-02-17T03:26:09.447Z,46.30
2019-02-17T03:28:37.747Z,46.40
2019-02-17T03:31:06.039Z,46.40
2019-02-17T03:33:34.495Z,46.60
2019-02-17T03:36:02.935Z,45.80
2019-02-17T03:38:31.222Z,46.10
2019-02-17T03:40:59.537Z,46.10
2019-02-17T03:43:28.193Z,46.10
2019-02-17T03:45:56.498Z,46.20
2019-02-17T03:48:24.801Z,46.20
2019-02-17T03:50:53.354Z,46.20
2019-02-17T03:53:21.768Z,46.50
2019-02-17T03:55:50.380Z,46.20
2019-02-17T03:58:18.664Z,46.00
2019-02-17T04:00:46.987Z,45.80
2019-02-17T04:03:15.618Z,45.90
2019-02-17T04:05:44.269Z,45.90
2019-02-17T04:08:12.684Z,46.10
2019-02-17T04:10:40.982Z,46.00
2019-02-17T04:13:09.357Z,46.10
2019-02-17T04:15:37.653Z,46.10
2019-02-17T04:18:05.961Z,46.10
2019-02-17T04:20:36.444Z,46.10
2019-02-17T04:23:05.126Z,46.20
2019-02-17T04:25:33.432Z,46.10
2019-02-17T04:28:01.814Z,46.30
2019-02-17T04:30:30.136Z,46.30
2019-02-17T04:32:58.748Z,44.20
2019-02-17T04:35:27.051Z,44.00
2019-02-17T04:37:55.340Z,44.00
2019-02-17T04:40:23.626Z,44.20
2019-02-17T04:42:52.264Z,44.90
2019-02-17T04:45:20.583Z,45.20
2019-02-17T04:47:48.867Z,45.20
2019-02-17T04:50:17.179Z,45.10
2019-02-17T04:52:45.534Z,45.10
2019-02-17T04:55:13.830Z,45.00
2019-02-17T04:57:42.436Z,45.20
2019-02-17T05:00:10.743Z,45.20
2019-02-17T05:02:39.394Z,45.10
2019-02-17T05:05:07.669Z,45.10
2019-02-17T05:07:36.260Z,45.20
2019-02-17T05:10:05.080Z,45.10
2019-02-17T05:12:33.391Z,45.00
2019-02-17T05:15:01.696Z,45.20
2019-02-17T05:17:30.282Z,45.20
2019-02-17T05:19:58.596Z,45.10
2019-02-17T05:22:26.976Z,45.20
2019-02-17T05:24:55.269Z,45.20
2019-02-17T05:30:17.182Z,45.10
2019-02-17T05:32:45.750Z,45.20
2019-02-17T05:35:14.038Z,45.20
2019-02-17T05:37:42.358Z,45.30
2019-02-17T05:40:10.644Z,45.20
2019-02-17T05:42:38.943Z,45.20
2019-02-17T05:47:56.091Z,45.40
2019-02-17T05:50:24.401Z,45.40
2019-02-17T05:52:52.954Z,45.30
2019-02-17T05:55:21.342Z,45.30
2019-02-17T05:57:50.019Z,45.40
2019-02-17T06:00:19.949Z,45.40
2019-02-17T06:02:48.259Z,45.40
2019-02-17T06:05:16.549Z,45.30
2019-02-17T06:07:44.860Z,45.30
2019-02-17T06:10:13.215Z,45.30
2019-02-17T06:12:41.822Z,45.40
2019-02-17T06:15:10.529Z,45.40
2019-02-17T06:17:39.203Z,45.30
2019-02-17T06:20:10.047Z,45.30
2019-02-17T06:22:38.646Z,45.30
2019-02-17T06:25:06.951Z,45.30
2019-02-17T06:27:35.509Z,45.30
2019-02-17T06:30:05.690Z,45.40
2019-02-17T06:32:34.054Z,45.40
2019-02-17T06:35:02.679Z,45.40
2019-02-17T06:37:33.686Z,45.40
2019-02-17T06:40:02.298Z,45.40
2019-02-17T06:42:30.580Z,45.40
2019-02-17T06:44:59.154Z,45.30
2019-02-17T06:47:29.074Z,45.30
2019-02-17T06:49:57.662Z,45.30
2019-02-17T06:52:25.958Z,45.40
2019-02-17T06:55:04.798Z,45.30
2019-02-17T06:57:34.719Z,45.30
2019-02-17T07:00:10.799Z,45.40
2019-02-17T07:02:39.413Z,45.30
2019-02-17T07:05:18.356Z,46.00
2019-02-17T07:07:46.739Z,45.30
2019-02-17T07:10:15.079Z,45.40
2019-02-17T07:12:43.682Z,45.20
2019-02-17T07:15:11.995Z,45.30
2019-02-17T07:17:40.274Z,45.20
2019-02-17T07:20:09.807Z,44.90
2019-02-17T07:22:38.536Z,44.80
2019-02-17T07:25:07.095Z,44.90
2019-02-17T07:27:35.798Z,44.70
2019-02-17T07:30:04.967Z,45.00
2019-02-17T07:32:33.582Z,45.00
2019-02-17T07:35:01.899Z,45.00
2019-02-17T07:37:33.422Z,44.80
2019-02-17T07:40:00.411Z,44.70
2019-02-17T07:42:29.053Z,44.70
2019-02-17T07:44:57.631Z,44.60
2019-02-17T07:47:25.927Z,44.70
2019-02-17T07:49:54.227Z,44.70
2019-02-17T07:52:22.511Z,44.70
2019-02-17T07:54:50.812Z,44.70
2019-02-17T07:57:19.097Z,44.70
2019-02-17T07:59:47.681Z,44.70
2019-02-17T08:02:15.970Z,44.70
2019-02-17T08:04:44.556Z,44.60
2019-02-17T08:07:12.856Z,44.70
2019-02-17T08:09:41.132Z,44.60
2019-02-17T08:12:09.536Z,44.70
2019-02-17T08:14:37.851Z,44.70
2019-02-17T08:17:06.567Z,44.70
2019-02-17T08:19:34.933Z,45.30
2019-02-17T08:22:03.642Z,44.60
2019-02-17T08:24:31.926Z,44.70
2019-02-17T08:27:00.261Z,44.70
2019-02-17T08:29:28.863Z,44.70
2019-02-17T08:31:57.177Z,44.70
2019-02-17T08:34:44.923Z,44.60
2019-02-17T08:37:13.563Z,44.50
2019-02-17T08:39:41.858Z,44.60
2019-02-17T08:42:10.414Z,44.60
2019-02-17T08:44:38.745Z,44.60
2019-02-17T08:47:07.094Z,44.70
2019-02-17T08:49:35.664Z,44.60
2019-02-17T08:52:03.985Z,44.60
2019-02-17T08:54:32.327Z,44.50
2019-02-17T08:57:01.002Z,44.60
2019-02-17T08:59:29.377Z,44.60
2019-02-17T09:02:05.620Z,44.60
2019-02-17T09:04:28.090Z,44.50
2019-02-17T09:06:56.665Z,44.50
2019-02-17T09:09:25.259Z,44.40
2019-02-17T09:11:53.567Z,44.40
2019-02-17T09:14:22.022Z,44.50
2019-02-17T09:16:53.458Z,44.40
2019-02-17T09:19:21.868Z,44.50
2019-02-17T09:21:50.422Z,44.40
2019-02-17T09:24:18.740Z,44.20
2019-02-17T09:26:47.398Z,44.20
2019-02-17T09:29:15.685Z,44.20
2019-02-17T09:31:44.346Z,44.30
2019-02-17T09:34:12.926Z,44.20
2019-02-17T09:36:41.251Z,44.30
2019-02-17T09:39:10.071Z,44.30
2019-02-17T09:41:38.679Z,44.20
2019-02-17T09:44:06.961Z,44.50
2019-02-17T09:46:35.283Z,44.20
2019-02-17T09:49:03.569Z,44.30
2019-02-17T09:51:31.886Z,44.30
2019-02-17T09:54:00.186Z,44.30
2019-02-17T09:56:28.482Z,44.20
2019-02-17T09:58:56.812Z,44.20
2019-02-17T10:01:25.199Z,44.10
2019-02-17T10:03:53.490Z,44.30
2019-02-17T10:06:22.289Z,44.30
2019-02-17T10:08:50.589Z,44.40
2019-02-17T10:11:18.886Z,44.30
2019-02-17T10:13:47.506Z,44.30
2019-02-17T10:16:17.422Z,44.20
2019-02-17T10:18:45.755Z,44.30
2019-02-17T10:21:14.489Z,44.30
2019-02-17T10:23:43.168Z,44.20
2019-02-17T10:26:11.828Z,44.20
2019-02-17T10:28:42.509Z,44.00
2019-02-17T10:31:10.730Z,44.00
2019-02-17T10:33:39.034Z,43.90
2019-02-17T10:36:07.336Z,43.60
2019-02-17T10:38:35.644Z,43.40
2019-02-17T10:41:03.923Z,43.30
2019-02-17T10:43:32.252Z,43.40
2019-02-17T10:46:00.537Z,43.30
2019-02-17T10:48:28.849Z,43.20
2019-02-17T10:50:57.454Z,43.30
2019-02-17T10:53:26.047Z,43.30
2019-02-17T10:55:54.648Z,43.00
2019-02-17T10:58:22.952Z,43.00
2019-02-17T11:00:51.583Z,43.00
2019-02-17T11:03:20.206Z,43.00
2019-02-17T11:05:48.751Z,43.00
2019-02-17T11:08:17.059Z,42.90
2019-02-17T11:10:45.611Z,42.70
2019-02-17T11:13:14.347Z,42.70
2019-02-17T11:15:43.002Z,42.60
2019-02-17T11:18:11.299Z,42.70
2019-02-17T11:20:39.955Z,42.80
2019-02-17T11:23:08.535Z,42.80
2019-02-17T11:25:37.076Z,42.80
2019-02-17T11:28:05.425Z,42.80
2019-02-17T11:30:34.086Z,42.80
2019-02-17T11:33:02.870Z,42.80
2019-02-17T11:35:31.454Z,43.00
2019-02-17T11:37:59.741Z,42.70
2019-02-17T11:40:28.315Z,42.80
2019-02-17T11:42:56.909Z,42.90
2019-02-17T11:45:25.220Z,43.00
2019-02-17T11:47:53.863Z,43.00
2019-02-17T11:50:22.442Z,43.00
2019-02-17T11:52:51.244Z,43.00
2019-02-17T11:55:22.867Z,43.10
2019-02-17T11:57:50.144Z,43.10
2019-02-17T12:00:23.010Z,43.10
2019-02-17T12:02:51.719Z,43.10
2019-02-17T12:05:20.028Z,43.10
2019-02-17T12:07:48.586Z,43.20
2019-02-17T12:10:17.119Z,43.10
2019-02-17T12:12:45.779Z,43.00
2019-02-17T12:15:14.375Z,42.90
2019-02-17T12:17:42.727Z,43.20
2019-02-17T12:20:41.002Z,43.10
2019-02-17T12:23:14.076Z,43.00
2019-02-17T12:25:50.077Z,43.20
2019-02-17T12:28:26.300Z,43.20
2019-02-17T12:30:54.659Z,43.10
2019-02-17T12:33:22.965Z,43.10
2019-02-17T12:35:51.259Z,43.20
2019-02-17T12:38:19.567Z,43.30
2019-02-17T12:40:48.191Z,43.20
2019-02-17T12:43:16.527Z,43.10
2019-02-17T12:45:44.808Z,43.10
2019-02-17T12:48:13.097Z,43.20
2019-02-17T12:50:41.716Z,43.10
2019-02-17T12:53:10.399Z,43.20
2019-02-17T12:55:39.543Z,43.20
2019-02-17T12:58:08.191Z,43.20
2019-02-17T13:00:37.293Z,43.20
2019-02-17T13:03:05.638Z,43.20
2019-02-17T13:05:33.950Z,43.30
2019-02-17T13:08:02.242Z,43.30
2019-02-17T13:10:30.632Z,43.20
2019-02-17T13:12:58.993Z,43.20
2019-02-17T13:15:27.678Z,43.30
2019-02-17T13:17:56.125Z,43.20
2019-02-17T13:20:24.410Z,44.00
2019-02-17T13:22:53.012Z,43.50
2019-02-17T13:25:21.306Z,43.60
2019-02-17T13:27:49.597Z,43.30
2019-02-17T13:30:20.685Z,43.10
2019-02-17T13:32:48.977Z,42.90
2019-02-17T13:35:17.289Z,42.80
2019-02-17T13:37:45.575Z,42.90
2019-02-17T13:40:14.227Z,42.70
2019-02-17T13:42:42.818Z,42.70
2019-02-17T13:45:15.562Z,42.60
2019-02-17T13:47:43.847Z,42.60
2019-02-17T13:50:17.024Z,42.40
2019-02-17T13:52:45.625Z,42.60
2019-02-17T13:55:13.973Z,42.70
2019-02-17T13:57:42.595Z,42.70
2019-02-17T14:00:16.606Z,42.70
2019-02-17T14:02:45.174Z,42.80
2019-02-17T14:05:13.779Z,42.90
2019-02-17T14:07:42.372Z,42.90
2019-02-17T14:10:15.277Z,43.00
2019-02-17T14:12:43.952Z,43.00
2019-02-17T14:15:20.402Z,43.00
2019-02-17T14:17:48.722Z,43.00
2019-02-17T14:22:46.456Z,42.90
2019-02-17T14:25:14.795Z,42.40
2019-02-17T14:27:43.519Z,42.00
2019-02-17T14:30:14.369Z,42.20
2019-02-17T14:32:42.947Z,42.20
2019-02-17T14:35:11.525Z,42.40
2019-02-17T14:37:39.898Z,42.30
2019-02-17T14:40:12.727Z,42.40
2019-02-17T14:42:41.379Z,42.30
2019-02-17T14:45:12.161Z,42.40
2019-02-17T14:47:40.487Z,42.60
2019-02-17T14:50:09.126Z,42.70
2019-02-17T14:52:37.444Z,43.40
2019-02-17T14:55:08.233Z,42.90
2019-02-17T14:57:36.671Z,43.10
2019-02-17T15:00:16.030Z,43.00
2019-02-17T15:02:44.402Z,43.10
2019-02-17T15:05:14.855Z,43.40
2019-02-17T15:07:43.174Z,43.30
2019-02-17T15:10:12.593Z,43.30
2019-02-17T15:12:41.175Z,43.40
2019-02-17T15:15:11.360Z,43.50
2019-02-17T15:17:39.716Z,43.50
2019-02-17T15:20:11.458Z,43.50
2019-02-17T15:22:39.765Z,43.50
2019-02-17T15:25:10.569Z,43.50
2019-02-17T15:27:38.959Z,43.60
2019-02-17T15:30:14.266Z,43.60
2019-02-17T15:32:42.845Z,43.70
2019-02-17T15:35:11.186Z,43.60
2019-02-17T15:37:39.811Z,43.80
2019-02-17T15:40:11.567Z,43.80
2019-02-17T15:42:39.886Z,44.10
2019-02-17T15:45:12.938Z,44.10
2019-02-17T15:47:41.298Z,44.20
2019-02-17T15:50:12.259Z,44.40
2019-02-17T15:52:40.559Z,44.40
2019-02-17T15:55:15.614Z,44.20
2019-02-17T15:57:44.000Z,44.60
2019-02-17T16:00:16.994Z,44.40
2019-02-17T16:02:45.643Z,44.40
2019-02-17T16:05:14.299Z,44.70
2019-02-17T16:07:42.591Z,44.30
2019-02-17T16:10:15.506Z,44.30
2019-02-17T16:12:44.151Z,44.40
2019-02-17T16:15:21.547Z,44.70
2019-02-17T16:17:49.931Z,44.20
2019-02-17T16:20:18.342Z,44.30
2019-02-17T16:22:46.622Z,44.10
2019-02-17T16:25:15.268Z,44.20
2019-02-17T16:27:44.052Z,44.40
2019-02-17T16:30:24.833Z,44.50
2019-02-17T16:32:53.135Z,44.70
2019-02-17T16:35:21.687Z,44.90
2019-02-17T16:37:49.983Z,44.60
2019-02-17T16:40:18.845Z,44.80
2019-02-17T16:42:47.203Z,44.90
2019-02-17T16:45:15.493Z,44.70
2019-02-17T16:47:45.599Z,44.60
2019-02-17T16:50:26.306Z,44.90
2019-02-17T16:52:54.616Z,44.90
2019-02-17T16:55:23.252Z,45.00
2019-02-17T16:57:51.830Z,44.80
2019-02-17T17:00:24.823Z,44.90
2019-02-17T17:02:54.349Z,45.40
2019-02-17T17:05:23.843Z,44.90
2019-02-17T17:07:52.204Z,46.20
2019-02-17T17:10:20.540Z,45.90
2019-02-17T17:12:48.848Z,45.90
2019-02-17T17:15:17.164Z,46.10
2019-02-17T17:17:45.707Z,46.30
2019-02-17T17:20:16.329Z,46.00
2019-02-17T17:22:44.949Z,45.90
2019-02-17T17:25:13.285Z,45.40
2019-02-17T17:27:41.593Z,45.90
2019-02-17T17:30:14.390Z,45.80
2019-02-17T17:32:42.683Z,45.70
2019-02-17T17:35:11.559Z,46.00
2019-02-17T17:37:39.861Z,45.70
2019-02-17T17:40:10.728Z,45.90
2019-02-17T17:42:39.091Z,45.80
2019-02-17T17:45:15.993Z,46.00
2019-02-17T17:47:44.604Z,46.20
2019-02-17T17:50:14.417Z,46.70
2019-02-17T17:52:43.024Z,46.10
2019-02-17T17:55:12.331Z,46.30
2019-02-17T17:57:40.645Z,46.20
2019-02-17T18:00:12.392Z,46.10
2019-02-17T18:02:41.048Z,46.10
2019-02-17T18:05:09.776Z,45.70
2019-02-17T18:07:38.503Z,45.70
2019-02-17T18:10:13.096Z,45.60
2019-02-17T18:12:41.722Z,45.10
2019-02-17T18:15:20.375Z,45.00
2019-02-17T18:17:54.671Z,44.90
2019-02-17T18:20:19.340Z,44.80
2019-02-17T18:22:47.658Z,44.70
2019-02-17T18:25:16.303Z,44.30
2019-02-17T18:27:44.617Z,44.20
2019-02-17T18:30:18.223Z,44.10
2019-02-17T18:32:46.969Z,44.10
2019-02-17T18:35:19.970Z,44.00
2019-02-17T18:37:45.980Z,44.00
2019-02-17T18:40:16.918Z,43.90
2019-02-17T18:42:45.208Z,43.70
2019-02-17T18:45:14.805Z,43.50
2019-02-17T18:47:43.157Z,43.40
2019-02-17T18:50:18.649Z,43.40
2019-02-17T18:52:46.961Z,43.20
2019-02-17T18:55:15.811Z,43.30
2019-02-17T18:57:50.048Z,43.20
2019-02-17T19:00:23.818Z,43.10
2019-02-17T19:02:52.412Z,43.30
2019-02-17T19:05:31.024Z,43.10
2019-02-17T19:07:51.623Z,43.70
2019-02-17T19:10:19.922Z,42.80
2019-02-17T19:12:48.295Z,43.00
2019-02-17T19:15:18.582Z,43.10
2019-02-17T19:17:46.882Z,43.10
2019-02-17T19:20:18.235Z,43.00
2019-02-17T19:22:47.036Z,43.10
2019-02-17T19:25:15.804Z,43.20
2019-02-17T19:27:44.385Z,43.30
2019-02-17T19:30:14.986Z,43.30
2019-02-17T19:32:43.595Z,43.20
2019-02-17T19:35:16.254Z,43.00
2019-02-17T19:37:44.859Z,42.80
2019-02-17T19:40:14.467Z,42.80
2019-02-17T19:42:43.097Z,43.10
2019-02-17T19:45:14.743Z,42.90
2019-02-17T19:47:43.439Z,43.00
2019-02-17T19:50:13.610Z,42.90
2019-02-17T19:52:43.539Z,42.80
2019-02-17T19:55:12.732Z,42.80
2019-02-17T19:57:41.143Z,42.80
2019-02-17T20:00:15.037Z,42.80
2019-02-17T20:03:03.700Z,42.90
2019-02-17T20:05:36.339Z,42.80
2019-02-17T20:08:04.671Z,42.80
2019-02-17T20:10:33.316Z,42.50
2019-02-17T20:13:01.649Z,42.70
2019-02-17T20:15:31.617Z,42.50
2019-02-17T20:18:00.286Z,42.80
2019-02-17T20:20:28.842Z,43.80
2019-02-17T20:22:57.467Z,43.30
2019-02-17T20:25:26.053Z,43.10
2019-02-17T20:27:54.736Z,43.10
2019-02-17T20:30:23.390Z,42.80
2019-02-17T20:32:52.000Z,43.00
2019-02-17T20:35:20.797Z,43.10
2019-02-17T20:37:49.134Z,43.20
2019-02-17T20:40:18.695Z,43.30
2019-02-17T20:42:47.375Z,43.10
2019-02-17T20:45:15.738Z,43.00
2019-02-17T20:47:44.320Z,42.90
2019-02-17T20:50:15.476Z,42.90
2019-02-17T20:52:44.273Z,42.80
2019-02-17T20:55:13.002Z,42.70
2019-02-17T20:57:41.295Z,42.30
2019-02-17T21:00:12.465Z,42.30
2019-02-17T21:02:40.792Z,42.30
2019-02-17T21:05:10.421Z,42.10
2019-02-17T21:07:38.807Z,42.10
2019-02-17T21:10:09.720Z,42.10
2019-02-17T21:12:38.057Z,42.30
2019-02-17T21:15:10.012Z,42.10
2019-02-17T21:17:39.932Z,42.30
2019-02-17T21:20:09.740Z,42.50
2019-02-17T21:22:38.451Z,42.80
2019-02-17T21:25:13.787Z,41.80
2019-02-17T21:27:42.102Z,41.70
2019-02-17T21:30:18.025Z,41.70
2019-02-17T21:32:48.484Z,41.80
2019-02-17T21:35:17.526Z,42.30
2019-02-17T21:37:46.475Z,42.50
2019-02-17T21:40:14.925Z,42.20
2019-02-17T21:42:43.571Z,42.30
2019-02-17T21:45:15.947Z,42.00
2019-02-17T21:47:44.530Z,42.00
2019-02-17T21:50:13.784Z,41.90
2019-02-17T21:52:42.405Z,41.70
2019-02-17T21:55:12.332Z,42.10
2019-02-17T21:57:40.630Z,42.20
2019-02-17T22:00:16.838Z,42.30
2019-02-17T22:02:45.451Z,42.30
2019-02-17T22:05:13.975Z,42.50
2019-02-17T22:07:42.283Z,42.40
2019-02-17T22:10:16.322Z,42.30
2019-02-17T22:12:44.920Z,42.60
2019-02-17T22:15:18.296Z,42.50
2019-02-17T22:17:46.894Z,42.80
2019-02-17T22:20:15.466Z,43.50
2019-02-17T22:22:43.769Z,42.80
2019-02-17T22:25:12.943Z,42.90
2019-02-17T22:27:41.264Z,42.90
2019-02-17T22:30:11.757Z,42.70
2019-02-17T22:32:40.573Z,42.90
2019-02-17T22:35:09.167Z,43.00
2019-02-17T22:37:37.748Z,42.80
2019-02-17T22:40:09.233Z,43.00
2019-02-17T22:42:37.556Z,43.20
2019-02-17T22:45:08.460Z,43.20
2019-02-17T22:47:37.302Z,43.40
2019-02-17T22:50:08.965Z,43.40
2019-02-17T22:52:37.722Z,43.60
2019-02-17T22:55:08.993Z,43.50
2019-02-17T22:57:37.295Z,43.70
2019-02-17T23:00:14.948Z,43.60
2019-02-17T23:02:43.316Z,43.70
2019-02-17T23:05:11.855Z,43.70
2019-02-17T23:07:40.149Z,43.60
2019-02-17T23:10:09.508Z,43.30
2019-02-17T23:12:38.082Z,43.10
2019-02-17T23:15:07.956Z,43.20
2019-02-17T23:17:36.254Z,43.30
2019-02-17T23:20:06.076Z,43.10
2019-02-17T23:22:34.686Z,43.30
2019-02-17T23:25:03.255Z,43.30
2019-02-17T23:27:31.541Z,43.10
2019-02-17T23:29:59.922Z,43.10
2019-02-17T23:32:28.496Z,43.00
2019-02-17T23:34:57.110Z,43.00
2019-02-17T23:37:25.774Z,43.10
2019-02-17T23:39:54.735Z,43.10
2019-02-17T23:42:23.007Z,43.20
2019-02-17T23:44:51.629Z,43.20
2019-02-17T23:47:19.940Z,43.00
2019-02-17T23:49:48.693Z,42.90
2019-02-17T23:52:17.280Z,43.10
2019-02-17T23:54:45.772Z,43.00
2019-02-17T23:57:14.610Z,43.00
2019-02-17T23:59:43.218Z,43.00
